Time;durP1;ratioP1;P1;durP2;ratioP2;P2;SDS_P1;SDS_P2;PMS_P1;PMS_P2;Temp;Humidity;BMP_temperature;BMP_pressure;BME280_temperature;BME280_humidity;BME280_pressure;Samples;Min_cycle;Max_cycle;Signal;HPM_P1;HPM_P2
2022/01/24 00:01:52;;;;;;;9.52;8.02;;;5.20;99.90;;;;;;5040399;28;20490;-47
2022/01/24 00:04:19;;;;;;;10.38;8.60;;;5.20;99.90;;;;;;5040864;28;20049;-49
2022/01/24 00:06:44;;;;;;;8.68;7.72;;;5.20;99.90;;;;;;5022472;28;20511;-47
2022/01/24 00:09:12;;;;;;;9.80;8.80;;;5.20;99.90;;;;;;5040796;28;20124;-47
2022/01/24 00:12:04;;;;;;;9.82;8.25;;;5.20;99.90;;;;;;5021052;28;20400;-48
2022/01/24 00:17:18;;;;;;;11.60;8.15;;;5.20;99.90;;;;;;5041764;28;20067;-47
2022/01/24 00:27:57;;;;;;;8.77;7.28;;;5.10;99.90;;;;;;5040357;28;20049;-46
2022/01/24 00:30:23;;;;;;;8.63;7.65;;;5.10;99.90;;;;;;5044401;28;20372;-47
2022/01/24 00:32:49;;;;;;;8.00;7.20;;;5.10;99.90;;;;;;5042238;28;20474;-46
2022/01/24 00:35:14;;;;;;;9.32;7.38;;;5.10;99.90;;;;;;5042813;28;20072;-48
2022/01/24 00:37:40;;;;;;;8.88;6.63;;;5.10;99.90;;;;;;5044120;28;20651;-48
2022/01/24 00:40:07;;;;;;;8.15;7.30;;;5.10;99.90;;;;;;5026303;28;20144;-48
2022/01/24 00:45:13;;;;;;;7.97;7.18;;;5.10;99.90;;;;;;5044114;28;20451;-47
2022/01/24 00:55:22;;;;;;;9.52;7.22;;;5.10;99.90;;;;;;5045303;28;20071;-46
2022/01/24 00:57:48;;;;;;;8.10;6.80;;;5.10;99.90;;;;;;5047368;28;20052;-46
2022/01/24 01:00:14;;;;;;;8.30;6.97;;;5.10;99.90;;;;;;5027937;28;20045;-47
2022/01/24 01:02:41;;;;;;;9.15;7.72;;;5.00;99.90;;;;;;5036321;28;20131;-49
2022/01/24 01:08:12;;;;;;;9.07;7.75;;;5.00;99.90;;;;;;5043985;28;20060;-47
2022/01/24 01:18:53;;;;;;;8.15;6.78;;;4.90;99.90;;;;;;5043150;28;20055;-47
2022/01/24 01:21:19;;;;;;;7.72;6.90;;;4.90;99.90;;;;;;5041908;28;20048;-48
2022/01/24 01:23:50;;;;;;;8.35;7.55;;;4.90;99.90;;;;;;5024321;28;20582;-47
2022/01/24 01:26:32;;;;;;;8.15;6.95;;;4.90;99.90;;;;;;5032507;28;20038;-49
2022/01/24 01:29:01;;;;;;;9.57;7.45;;;4.90;99.90;;;;;;5037744;28;20041;-47
2022/01/24 01:37:09;;;;;;;8.57;7.63;;;4.90;99.90;;;;;;5035476;28;20529;-47
2022/01/24 01:53:16;;;;;;;10.80;8.05;;;4.90;99.90;;;;;;5042208;28;20060;-47
2022/01/24 01:55:43;;;;;;;9.02;7.85;;;4.90;99.90;;;;;;5044780;28;20519;-46
2022/01/24 01:58:12;;;;;;;9.75;8.45;;;4.90;99.90;;;;;;5042372;28;20444;-50
2022/01/24 02:00:44;;;;;;;10.82;8.63;;;4.90;99.90;;;;;;5041632;28;20053;-47
2022/01/24 02:03:11;;;;;;;11.20;8.68;;;4.80;99.90;;;;;;5042683;28;20416;-46
2022/01/24 02:05:37;;;;;;;13.00;8.90;;;4.90;99.90;;;;;;5043634;28;20134;-48
2022/01/24 02:08:04;;;;;;;11.65;8.20;;;4.90;99.90;;;;;;5045112;28;20547;-49
2022/01/24 02:10:32;;;;;;;11.60;9.30;;;4.90;99.90;;;;;;5027285;28;20136;-47
2022/01/24 02:12:58;;;;;;;11.63;9.55;;;4.80;99.90;;;;;;5042425;28;20048;-49
2022/01/24 02:15:34;;;;;;;11.82;9.32;;;4.90;99.90;;;;;;5050191;28;20547;-50
2022/01/24 02:18:12;;;;;;;14.55;9.88;;;4.80;99.90;;;;;;5042370;28;20057;-46
2022/01/24 02:25:56;;;;;;;11.93;9.60;;;4.80;99.90;;;;;;5040404;28;20086;-47
2022/01/24 02:28:24;;;;;;;12.25;9.80;;;4.90;99.90;;;;;;5024595;28;20053;-46
2022/01/24 02:31:19;;;;;;;11.38;9.65;;;4.90;99.90;;;;;;5040859;28;20116;-50
2022/01/24 02:33:46;;;;;;;12.07;10.32;;;4.80;99.90;;;;;;5040726;28;20048;-46
2022/01/24 02:36:18;;;;;;;15.20;10.98;;;4.80;99.90;;;;;;5022629;28;20072;-46
2022/01/24 02:49:32;;;;;;;14.32;11.80;;;4.80;99.90;;;;;;5043344;28;20045;-47
2022/01/24 02:52:09;;;;;;;15.50;11.25;;;4.80;99.90;;;;;;5040954;28;20373;-48
2022/01/24 02:54:37;;;;;;;15.70;12.32;;;4.80;99.90;;;;;;5032073;28;20102;-47
2022/01/24 02:57:06;;;;;;;14.30;11.63;;;4.80;99.90;;;;;;5041594;28;20075;-48
2022/01/24 02:59:32;;;;;;;13.52;11.45;;;4.80;99.90;;;;;;5041875;28;20055;-47
2022/01/24 03:01:59;;;;;;;16.20;12.18;;;4.70;99.90;;;;;;5040958;28;20583;-48
2022/01/24 03:04:25;;;;;;;16.88;12.15;;;4.80;99.90;;;;;;5042328;28;20046;-46
2022/01/24 03:06:51;;;;;;;14.65;12.20;;;4.70;99.90;;;;;;5031514;28;20124;-46
2022/01/24 03:09:17;;;;;;;15.52;12.57;;;4.80;99.90;;;;;;5023650;28;20126;-46
2022/01/24 03:14:35;;;;;;;13.90;11.68;;;4.80;99.90;;;;;;5052338;28;20132;-47
2022/01/24 03:17:02;;;;;;;17.48;12.38;;;4.70;99.90;;;;;;5040843;28;20053;-50
2022/01/24 03:19:28;;;;;;;14.75;12.65;;;4.80;99.90;;;;;;5044066;28;20041;-51
2022/01/24 03:21:54;;;;;;;14.80;12.57;;;4.70;99.90;;;;;;5042226;28;20142;-49
2022/01/24 03:24:25;;;;;;;15.00;11.45;;;4.70;99.90;;;;;;5041092;28;20720;-49
2022/01/24 03:26:51;;;;;;;17.02;12.55;;;4.70;99.90;;;;;;5029372;28;20551;-47
2022/01/24 03:29:17;;;;;;;14.77;12.02;;;4.70;99.90;;;;;;5042298;28;20040;-47
2022/01/24 03:31:45;;;;;;;15.27;12.77;;;4.70;99.90;;;;;;5041144;28;20384;-47
2022/01/24 03:34:10;;;;;;;14.20;11.73;;;4.70;99.90;;;;;;5041387;28;20107;-47
2022/01/24 03:36:36;;;;;;;15.98;11.82;;;4.70;99.90;;;;;;5040575;28;20603;-47
2022/01/24 03:39:03;;;;;;;14.68;11.68;;;4.70;99.90;;;;;;5040930;28;20053;-46
2022/01/24 03:41:29;;;;;;;13.35;10.98;;;4.70;99.90;;;;;;5040668;28;20055;-47
2022/01/24 03:44:01;;;;;;;14.85;11.02;;;4.70;99.90;;;;;;5029619;28;20045;-47
2022/01/24 03:46:29;;;;;;;13.23;11.63;;;4.70;99.90;;;;;;5041337;28;20049;-47
2022/01/24 03:49:07;;;;;;;13.63;11.35;;;4.70;99.90;;;;;;5043938;28;20857;-47
2022/01/24 03:51:33;;;;;;;14.75;11.55;;;4.70;99.90;;;;;;5045140;28;20048;-47
2022/01/24 03:54:00;;;;;;;14.82;11.80;;;4.70;99.90;;;;;;5045187;28;20041;-47
2022/01/24 03:56:26;;;;;;;15.13;11.25;;;4.70;99.90;;;;;;5044289;28;20507;-47
2022/01/24 03:58:52;;;;;;;16.38;12.00;;;4.70;99.90;;;;;;5044412;28;20140;-46
2022/01/24 04:01:18;;;;;;;14.02;10.25;;;4.70;99.90;;;;;;5044508;28;20411;-49
2022/01/24 04:03:44;;;;;;;13.27;11.32;;;4.70;99.90;;;;;;5026597;28;20491;-47
2022/01/24 04:06:10;;;;;;;13.30;11.00;;;4.70;99.90;;;;;;5044877;28;20361;-48
2022/01/24 04:08:36;;;;;;;13.77;10.90;;;4.70;99.90;;;;;;5045414;28;20041;-46
2022/01/24 04:11:09;;;;;;;11.65;10.30;;;4.70;99.90;;;;;;5026564;28;20139;-48
2022/01/24 04:13:39;;;;;;;12.57;9.45;;;4.70;99.90;;;;;;5047567;28;20140;-47
2022/01/24 04:18:40;;;;;;;12.18;10.65;;;4.70;99.90;;;;;;5043695;28;20494;-47
2022/01/24 04:24:27;;;;;;;14.23;11.25;;;4.70;99.90;;;;;;5045049;28;20532;-47
2022/01/24 04:26:45;;;;;;;17.80;12.20;;;4.60;99.90;;;;;;5049951;28;20071;-47
2022/01/24 04:29:11;;;;;;;14.80;11.45;;;4.60;99.90;;;;;;5044720;28;20491;-48
2022/01/24 04:31:37;;;;;;;15.25;11.80;;;4.60;99.90;;;;;;5047050;28;20049;-50
2022/01/24 04:34:03;;;;;;;12.90;10.85;;;4.60;99.90;;;;;;5045654;28;20119;-51
2022/01/24 04:36:29;;;;;;;15.90;12.25;;;4.60;99.90;;;;;;5045012;28;20056;-47
2022/01/24 04:38:55;;;;;;;12.93;11.10;;;4.60;99.90;;;;;;5040711;28;20044;-47
2022/01/24 04:41:26;;;;;;;14.10;11.27;;;4.60;99.90;;;;;;5023117;28;20402;-47
2022/01/24 04:56:42;;;;;;;13.55;10.63;;;4.60;99.90;;;;;;5024649;28;20500;-49
2022/01/24 04:59:09;;;;;;;15.40;11.13;;;4.60;99.90;;;;;;5024974;28;20053;-46
2022/01/24 05:01:36;;;;;;;14.00;11.52;;;4.60;99.90;;;;;;5025146;28;20096;-48
2022/01/24 05:04:02;;;;;;;14.88;12.23;;;4.60;99.90;;;;;;5025320;28;20048;-46
2022/01/24 05:06:28;;;;;;;15.35;11.45;;;4.60;99.90;;;;;;5026233;28;20087;-46
2022/01/24 05:08:54;;;;;;;13.63;11.35;;;4.60;99.90;;;;;;5023591;28;20140;-47
2022/01/24 05:11:32;;;;;;;15.00;12.02;;;4.60;99.90;;;;;;5039560;28;20049;-46
2022/01/24 05:24:46;;;;;;;18.02;12.73;;;4.60;99.90;;;;;;5026010;28;20096;-46
2022/01/24 05:27:12;;;;;;;15.40;11.88;;;4.60;99.90;;;;;;5043787;28;20077;-47
2022/01/24 05:29:38;;;;;;;17.02;12.07;;;4.60;99.90;;;;;;5044502;28;20060;-47
2022/01/24 05:32:07;;;;;;;15.30;12.00;;;4.60;99.90;;;;;;5043560;28;20048;-47
2022/01/24 05:34:33;;;;;;;14.05;11.43;;;4.60;99.90;;;;;;5023918;28;20068;-47
2022/01/24 05:36:59;;;;;;;16.17;13.02;;;4.60;99.90;;;;;;5026577;28;20100;-47
2022/01/24 05:39:24;;;;;;;16.92;13.77;;;4.60;99.90;;;;;;5044650;28;20099;-49
2022/01/24 05:41:50;;;;;;;17.77;13.73;;;4.60;99.90;;;;;;5046279;28;20053;-50
2022/01/24 05:44:16;;;;;;;15.23;12.75;;;4.60;99.90;;;;;;5043757;28;20144;-58
2022/01/24 05:46:42;;;;;;;15.52;13.38;;;4.60;99.90;;;;;;5043428;28;20055;-50
2022/01/24 05:49:08;;;;;;;17.08;13.65;;;4.60;99.90;;;;;;5042023;28;20053;-46
2022/01/24 05:51:33;;;;;;;15.05;12.25;;;4.60;99.90;;;;;;5043571;28;20367;-46
2022/01/24 05:53:59;;;;;;;17.63;12.40;;;4.60;99.90;;;;;;5042064;28;20037;-47
2022/01/24 05:56:25;;;;;;;17.70;12.73;;;4.60;99.90;;;;;;5043548;28;20080;-47
2022/01/24 05:58:51;;;;;;;17.05;13.15;;;4.60;99.90;;;;;;5042600;28;20475;-47
2022/01/24 06:01:16;;;;;;;16.10;13.20;;;4.60;99.90;;;;;;5023974;28;20052;-46
2022/01/24 06:03:42;;;;;;;19.63;15.23;;;4.60;99.90;;;;;;5023978;28;20560;-47
2022/01/24 06:06:08;;;;;;;19.90;15.40;;;4.60;99.90;;;;;;5024653;28;20049;-47
2022/01/24 06:08:35;;;;;;;20.38;16.65;;;4.60;99.90;;;;;;5040846;28;20467;-47
2022/01/24 06:11:01;;;;;;;21.73;17.08;;;4.60;99.90;;;;;;5024456;28;20056;-48
2022/01/24 06:13:27;;;;;;;19.15;15.75;;;4.70;99.90;;;;;;5009140;28;20576;-46
2022/01/24 06:15:53;;;;;;;20.55;17.05;;;4.70;99.90;;;;;;5030793;28;20403;-48
2022/01/24 06:18:20;;;;;;;19.77;15.52;;;4.70;99.90;;;;;;5042719;28;20040;-46
2022/01/24 06:20:46;;;;;;;21.15;16.63;;;4.70;99.90;;;;;;5023829;28;20418;-47
2022/01/24 06:23:18;;;;;;;21.00;16.50;;;4.70;99.90;;;;;;5041815;28;20057;-46
2022/01/24 06:25:45;;;;;;;21.02;16.90;;;4.70;99.90;;;;;;5040862;28;20327;-46
2022/01/24 06:28:12;;;;;;;24.23;16.77;;;4.70;99.90;;;;;;5043439;28;20044;-50
2022/01/24 06:30:37;;;;;;;23.65;18.08;;;4.70;99.90;;;;;;5024108;28;20045;-46
2022/01/24 06:33:03;;;;;;;22.92;16.95;;;4.70;99.90;;;;;;5022842;28;20126;-47
2022/01/24 06:35:29;;;;;;;22.23;17.75;;;4.70;99.90;;;;;;5024115;28;20125;-46
2022/01/24 06:37:55;;;;;;;22.85;18.60;;;4.70;99.90;;;;;;5025273;28;20108;-46
2022/01/24 06:40:21;;;;;;;23.38;19.17;;;4.70;99.90;;;;;;5040254;28;20045;-48
2022/01/24 06:42:47;;;;;;;23.52;19.65;;;4.70;99.90;;;;;;5027042;28;20053;-46
2022/01/24 06:45:13;;;;;;;25.02;19.00;;;4.70;99.90;;;;;;5023597;28;20399;-46
2022/01/24 06:47:41;;;;;;;22.60;19.05;;;4.70;99.90;;;;;;5042211;28;20111;-50
2022/01/24 06:50:07;;;;;;;24.50;18.58;;;4.70;99.90;;;;;;5044227;28;20057;-49
2022/01/24 06:52:33;;;;;;;24.20;18.20;;;4.70;99.90;;;;;;5043789;28;20057;-46
2022/01/24 06:54:59;;;;;;;23.75;17.88;;;4.80;99.90;;;;;;5043618;28;20059;-52
2022/01/24 06:57:25;;;;;;;23.40;18.35;;;4.80;99.90;;;;;;5041080;28;20575;-50
2022/01/24 06:59:51;;;;;;;22.25;17.77;;;4.80;99.90;;;;;;5034981;28;20045;-47
2022/01/24 07:02:17;;;;;;;23.02;17.20;;;4.70;99.90;;;;;;5028074;28;20064;-48
2022/01/24 07:04:44;;;;;;;22.70;18.52;;;4.70;99.90;;;;;;5041129;28;20426;-47
2022/01/24 07:07:12;;;;;;;23.20;18.58;;;4.70;99.90;;;;;;5003755;28;20140;-46
2022/01/24 07:09:38;;;;;;;25.85;18.42;;;4.70;99.90;;;;;;5023390;28;20061;-48
2022/01/24 07:12:05;;;;;;;21.83;17.55;;;4.70;99.90;;;;;;5039591;28;20053;-47
2022/01/24 07:14:31;;;;;;;22.10;17.27;;;4.70;99.90;;;;;;5042794;28;20502;-48
2022/01/24 07:19:28;;;;;;;23.42;18.48;;;4.70;99.90;;;;;;5041626;28;20152;-46
2022/01/24 07:21:55;;;;;;;23.23;18.75;;;4.70;99.90;;;;;;5041142;28;20076;-47
2022/01/24 07:24:22;;;;;;;20.80;17.05;;;4.70;99.90;;;;;;5039879;28;20363;-46
2022/01/24 07:26:48;;;;;;;22.55;18.02;;;4.70;99.90;;;;;;5040476;28;20055;-47
2022/01/24 07:29:14;;;;;;;25.13;19.05;;;4.70;99.90;;;;;;5022763;28;20422;-46
2022/01/24 07:31:40;;;;;;;23.77;18.40;;;4.70;99.90;;;;;;5041979;28;20091;-48
2022/01/24 07:34:07;;;;;;;22.85;18.80;;;4.70;99.90;;;;;;5023131;28;20110;-46
2022/01/24 07:36:32;;;;;;;26.17;20.88;;;4.70;99.90;;;;;;5023160;28;20499;-48
2022/01/24 07:38:58;;;;;;;27.55;20.15;;;4.70;99.90;;;;;;5006478;28;20217;-47
2022/01/24 07:41:27;;;;;;;25.65;20.10;;;4.70;99.90;;;;;;5037853;28;20382;-47
2022/01/24 07:43:54;;;;;;;26.13;20.85;;;4.70;99.90;;;;;;5036525;28;20056;-49
2022/01/24 07:46:20;;;;;;;25.58;19.95;;;4.70;99.90;;;;;;5034839;28;20044;-47
2022/01/24 07:48:46;;;;;;;27.17;20.70;;;4.70;99.90;;;;;;5017300;28;20052;-46
2022/01/24 07:51:12;;;;;;;28.60;20.95;;;4.70;99.90;;;;;;5020146;28;20053;-48
2022/01/24 07:53:38;;;;;;;25.15;20.02;;;4.70;99.90;;;;;;5017979;28;20462;-47
2022/01/24 07:56:05;;;;;;;24.65;19.85;;;4.70;99.90;;;;;;5036983;28;20143;-48
2022/01/24 07:58:31;;;;;;;22.92;18.67;;;4.70;99.90;;;;;;5036138;28;20049;-46
2022/01/24 08:00:57;;;;;;;27.25;20.70;;;4.70;99.90;;;;;;5038272;28;20075;-50
2022/01/24 08:03:23;;;;;;;26.85;21.10;;;4.70;99.90;;;;;;5040799;28;20136;-46
2022/01/24 08:05:49;;;;;;;27.70;21.33;;;4.70;99.90;;;;;;5038740;28;20068;-53
2022/01/24 08:08:14;;;;;;;27.23;21.10;;;4.70;99.90;;;;;;5035726;28;20152;-49
2022/01/24 08:10:40;;;;;;;27.83;21.33;;;4.70;99.90;;;;;;5029935;28;20623;-48
2022/01/24 08:13:06;;;;;;;29.05;22.50;;;4.70;99.90;;;;;;5033368;28;20490;-49
2022/01/24 08:15:33;;;;;;;33.17;23.42;;;4.70;99.90;;;;;;5020469;28;20411;-48
2022/01/24 08:17:59;;;;;;;31.60;22.55;;;4.70;99.90;;;;;;5015737;28;20153;-49
2022/01/24 08:20:25;;;;;;;28.05;21.55;;;4.80;99.90;;;;;;5016713;28;20432;-47
2022/01/24 08:22:51;;;;;;;30.20;22.92;;;4.80;99.90;;;;;;5030945;28;20487;-46
2022/01/24 08:25:17;;;;;;;29.48;23.15;;;4.70;99.90;;;;;;5033284;28;20288;-47
2022/01/24 08:27:43;;;;;;;29.90;23.20;;;4.80;99.90;;;;;;5021321;28;20061;-47
2022/01/24 08:30:12;;;;;;;29.25;22.70;;;4.70;99.90;;;;;;5021567;28;20049;-46
2022/01/24 08:32:39;;;;;;;31.00;23.45;;;4.80;99.90;;;;;;5040138;28;20417;-46
2022/01/24 08:35:06;;;;;;;30.98;23.95;;;4.80;99.90;;;;;;5046881;28;20048;-47
2022/01/24 08:37:33;;;;;;;30.90;22.98;;;4.80;99.90;;;;;;5043871;28;20041;-46
2022/01/24 08:39:59;;;;;;;29.92;23.23;;;4.80;99.90;;;;;;5025629;28;20063;-48
2022/01/24 08:42:43;;;;;;;30.10;23.38;;;4.80;99.90;;;;;;5025680;28;20048;-46
2022/01/24 08:47:54;;;;;;;31.73;23.92;;;4.80;99.90;;;;;;5041347;28;20107;-46
2022/01/24 08:50:25;;;;;;;32.75;24.52;;;4.80;99.90;;;;;;5042732;28;20048;-46
2022/01/24 08:52:59;;;;;;;33.13;24.95;;;4.80;99.90;;;;;;5044579;28;20447;-47
2022/01/24 08:55:32;;;;;;;31.55;24.38;;;4.90;99.90;;;;;;5036277;28;20099;-48
2022/01/24 08:57:59;;;;;;;33.05;24.52;;;4.90;99.90;;;;;;5039256;28;20491;-47
2022/01/24 09:00:26;;;;;;;32.80;24.42;;;4.90;99.90;;;;;;5034363;28;20402;-48
2022/01/24 09:02:52;;;;;;;33.40;24.33;;;4.90;99.90;;;;;;5016487;28;20053;-46
2022/01/24 09:05:21;;;;;;;31.83;23.92;;;4.90;99.90;;;;;;5034096;28;20056;-46
2022/01/24 09:07:47;;;;;;;32.35;24.70;;;5.00;99.90;;;;;;5002475;28;20045;-46
2022/01/24 09:10:13;;;;;;;33.58;25.02;;;5.00;99.90;;;;;;5034782;28;20072;-47
2022/01/24 09:12:39;;;;;;;34.75;25.50;;;5.00;99.90;;;;;;5018626;28;20045;-49
2022/01/24 09:15:05;;;;;;;38.70;28.67;;;5.00;99.90;;;;;;5044122;28;20037;-47
2022/01/24 09:17:31;;;;;;;35.28;27.25;;;5.00;99.90;;;;;;5025758;28;20053;-47
2022/01/24 09:19:57;;;;;;;37.97;27.73;;;5.00;99.90;;;;;;5042264;28;20084;-48
2022/01/24 09:22:23;;;;;;;38.42;27.42;;;5.00;99.90;;;;;;5024157;28;20111;-49
2022/01/24 09:24:48;;;;;;;41.45;28.95;;;5.00;99.90;;;;;;5040290;28;20049;-48
2022/01/24 09:27:15;;;;;;;36.20;26.27;;;5.00;99.90;;;;;;5035894;28;20048;-47
2022/01/24 09:29:41;;;;;;;39.85;28.02;;;5.00;99.90;;;;;;5020589;28;20110;-46
2022/01/24 09:32:07;;;;;;;43.63;29.73;;;5.00;99.90;;;;;;5037893;28;20055;-47
2022/01/24 09:34:33;;;;;;;41.85;29.85;;;5.10;99.90;;;;;;5034855;28;20045;-47
2022/01/24 09:36:59;;;;;;;44.30;31.30;;;5.10;99.90;;;;;;5037570;28;20523;-48
2022/01/24 09:39:25;;;;;;;44.33;31.27;;;5.10;99.90;;;;;;5036722;28;20578;-47
2022/01/24 09:41:51;;;;;;;45.13;31.05;;;5.10;99.90;;;;;;5038031;28;20041;-47
2022/01/24 09:44:17;;;;;;;46.80;32.45;;;5.10;99.90;;;;;;5043003;28;20056;-46
2022/01/24 09:46:44;;;;;;;45.17;32.17;;;5.10;99.90;;;;;;5023786;28;20052;-47
2022/01/24 09:49:11;;;;;;;49.55;33.10;;;5.10;99.90;;;;;;5024419;28;20147;-49
2022/01/24 09:51:37;;;;;;;47.03;32.88;;;5.10;99.90;;;;;;5040924;28;20128;-48
2022/01/24 09:54:07;;;;;;;43.13;30.98;;;5.20;99.90;;;;;;5002466;28;20064;-49
2022/01/24 09:56:34;;;;;;;50.97;34.90;;;5.10;99.90;;;;;;5040161;28;20061;-47
2022/01/24 09:59:01;;;;;;;54.53;35.35;;;5.20;99.90;;;;;;5034515;28;20052;-47
2022/01/24 10:01:27;;;;;;;54.22;37.17;;;5.20;99.90;;;;;;5037819;28;20064;-47
2022/01/24 10:04:15;;;;;;;52.88;36.88;;;5.20;99.90;;;;;;5036309;28;20045;-49
2022/01/24 10:07:11;;;;;;;53.88;35.38;;;5.20;99.90;;;;;;5015513;28;20057;-47
2022/01/24 10:09:47;;;;;;;57.20;37.80;;;5.20;99.90;;;;;;5030088;28;20131;-50
2022/01/24 10:18:01;;;;;;;56.63;36.97;;;5.20;99.90;;;;;;5033725;28;20092;-47
2022/01/24 10:20:31;;;;;;;53.88;35.67;;;5.30;99.90;;;;;;5037811;28;20091;-47
2022/01/24 10:23:24;;;;;;;55.03;36.22;;;5.30;99.90;;;;;;5016131;28;20091;-47
2022/01/24 10:25:49;;;;;;;46.08;33.35;;;5.30;99.90;;;;;;5038839;28;20103;-47
2022/01/24 10:28:28;;;;;;;48.95;35.85;;;5.30;99.90;;;;;;5041048;28;20528;-48
2022/01/24 10:31:16;;;;;;;45.63;33.05;;;5.40;99.90;;;;;;5038290;28;20571;-48
2022/01/24 10:34:10;;;;;;;45.00;30.88;;;5.40;99.90;;;;;;5040504;28;20068;-49
2022/01/24 10:36:49;;;;;;;41.35;28.63;;;5.40;99.90;;;;;;5027874;28;20131;-46
2022/01/24 10:39:18;;;;;;;41.38;28.67;;;5.30;99.90;;;;;;5027026;28;20530;-47
2022/01/24 10:44:33;;;;;;;44.50;31.33;;;5.40;99.90;;;;;;5040883;28;20136;-46
2022/01/24 10:47:33;;;;;;;42.67;30.08;;;5.40;99.90;;;;;;5040612;28;20045;-50
2022/01/24 10:50:03;;;;;;;47.17;31.80;;;5.50;99.90;;;;;;5037578;28;20068;-47
2022/01/24 10:52:31;;;;;;;44.08;31.35;;;5.40;99.90;;;;;;5040726;28;20095;-47
2022/01/24 10:55:30;;;;;;;48.15;32.25;;;5.40;99.90;;;;;;5039988;28;20040;-47
2022/01/24 10:58:04;;;;;;;40.85;29.90;;;5.50;99.90;;;;;;4959308;28;20661;-46
2022/01/24 11:00:30;;;;;;;46.45;30.55;;;5.50;99.90;;;;;;4959914;28;20062;-47
2022/01/24 11:03:02;;;;;;;45.30;30.95;;;5.50;99.90;;;;;;4959111;28;20055;-46
2022/01/24 11:05:33;;;;;;;46.72;30.98;;;5.50;99.90;;;;;;4956012;28;20490;-47
2022/01/24 11:08:01;;;;;;;51.05;32.95;;;5.60;99.90;;;;;;4952679;28;20054;-49
2022/01/24 11:10:29;;;;;;;50.30;33.20;;;5.60;99.90;;;;;;4942695;28;20063;-48
2022/01/24 11:12:55;;;;;;;45.92;31.92;;;5.60;99.90;;;;;;4962504;28;20050;-48
2022/01/24 11:15:22;;;;;;;44.25;33.30;;;5.60;99.90;;;;;;4960754;28;20138;-54
2022/01/24 11:17:49;;;;;;;46.10;32.90;;;5.60;99.90;;;;;;4958065;28;20056;-50
2022/01/24 11:20:18;;;;;;;47.45;33.35;;;5.60;99.90;;;;;;4959910;28;20062;-47
2022/01/24 11:22:58;;;;;;;52.70;36.30;;;5.60;99.90;;;;;;4944051;28;20060;-48
2022/01/24 11:25:24;;;;;;;53.90;37.92;;;5.60;99.90;;;;;;4965775;28;20059;-47
2022/01/24 11:27:50;;;;;;;52.00;37.30;;;5.60;99.90;;;;;;4959480;28;20054;-48
2022/01/24 11:30:22;;;;;;;54.28;39.08;;;5.60;99.90;;;;;;4959274;28;20069;-47
2022/01/24 11:33:04;;;;;;;60.97;41.53;;;5.60;99.90;;;;;;4971364;28;20529;-48
2022/01/24 11:35:50;;;;;;;57.67;40.00;;;5.60;99.90;;;;;;5040449;28;20071;-46
2022/01/24 11:38:42;;;;;;;63.03;42.40;;;5.60;99.90;;;;;;5044652;28;20049;-48
2022/01/24 11:41:26;;;;;;;59.42;40.83;;;5.60;99.90;;;;;;5049495;28;20554;-46
2022/01/24 11:43:55;;;;;;;63.35;43.15;;;5.60;99.90;;;;;;5035171;28;20054;-48
2022/01/24 11:46:37;;;;;;;59.45;41.15;;;5.50;99.90;;;;;;5029021;28;20052;-48
2022/01/24 11:49:16;;;;;;;56.97;38.00;;;5.60;99.90;;;;;;5050996;28;20055;-47
2022/01/24 11:51:47;;;;;;;48.45;34.45;;;5.60;99.90;;;;;;5031892;28;20490;-47
2022/01/24 11:57:40;;;;;;;51.42;35.42;;;5.60;99.90;;;;;;5034992;28;20057;-49
2022/01/24 12:00:06;;;;;;;51.90;36.83;;;5.60;99.90;;;;;;5040087;28;20077;-49
2022/01/24 12:02:49;;;;;;;50.85;34.85;;;5.70;99.90;;;;;;5024159;28;20178;-47
2022/01/24 12:05:20;;;;;;;51.45;36.10;;;5.60;99.90;;;;;;5017059;28;20053;-49
2022/01/24 12:07:52;;;;;;;48.83;34.67;;;5.60;99.90;;;;;;5021094;28;20460;-48
2022/01/24 12:10:33;;;;;;;49.53;34.55;;;5.70;99.90;;;;;;5025718;28;20063;-48
2022/01/24 12:13:03;;;;;;;48.08;32.58;;;5.70;99.90;;;;;;5039380;28;20048;-46
2022/01/24 12:15:38;;;;;;;46.50;32.72;;;5.70;99.90;;;;;;5053570;28;20048;-50
2022/01/24 12:18:43;;;;;;;47.55;34.08;;;5.70;99.90;;;;;;5046266;28;20053;-49
2022/01/24 12:21:11;;;;;;;48.63;32.78;;;5.70;99.90;;;;;;5035343;28;20115;-50
2022/01/24 12:23:39;;;;;;;51.58;35.25;;;5.70;99.90;;;;;;5047251;28;20040;-47
2022/01/24 12:26:05;;;;;;;55.05;35.60;;;5.70;99.90;;;;;;5047375;28;20049;-53
2022/01/24 12:28:47;;;;;;;49.22;35.40;;;5.70;99.90;;;;;;5045647;28;20052;-53
2022/01/24 12:31:21;;;;;;;57.13;39.75;;;5.80;99.90;;;;;;5026188;28;20564;-49
2022/01/24 12:33:53;;;;;;;61.25;40.70;;;5.80;99.90;;;;;;5036863;28;20127;-47
2022/01/24 12:37:00;;;;;;;56.33;38.67;;;5.70;99.90;;;;;;5043110;28;20503;-47
2022/01/24 12:39:46;;;;;;;55.80;40.15;;;5.70;99.90;;;;;;5044725;28;20088;-47
2022/01/24 12:42:26;;;;;;;54.80;36.88;;;5.70;99.90;;;;;;5044340;28;20325;-47
2022/01/24 12:47:27;;;;;;;55.85;38.60;;;5.70;99.90;;;;;;5026214;28;20446;-47
2022/01/24 12:49:55;;;;;;;53.15;38.47;;;5.80;99.90;;;;;;5025092;28;20049;-48
2022/01/24 12:52:29;;;;;;;52.05;37.92;;;5.70;99.90;;;;;;5041342;28;20049;-47
2022/01/24 12:54:58;;;;;;;56.38;38.45;;;5.80;99.90;;;;;;5044043;28;20053;-47
2022/01/24 12:57:39;;;;;;;54.35;39.72;;;5.70;99.90;;;;;;5047989;28;20605;-46
2022/01/24 13:00:07;;;;;;;54.38;38.58;;;5.70;99.90;;;;;;5032496;28;20411;-47
2022/01/24 13:02:37;;;;;;;49.53;37.72;;;5.80;99.90;;;;;;5031924;28;20415;-47
2022/01/24 13:05:16;;;;;;;56.05;38.55;;;5.80;99.90;;;;;;5044004;28;20049;-47
2022/01/24 13:07:49;;;;;;;56.80;37.33;;;5.80;99.90;;;;;;5043080;28;20106;-47
2022/01/24 13:10:18;;;;;;;48.78;34.63;;;5.80;99.90;;;;;;5043615;28;20114;-47
2022/01/24 13:12:53;;;;;;;48.10;34.50;;;5.80;99.90;;;;;;5039455;28;20053;-46
2022/01/24 13:20:24;;;;;;;50.45;36.97;;;5.80;99.90;;;;;;5048895;28;20041;-47
2022/01/24 13:23:29;;;;;;;52.92;37.83;;;5.70;99.90;;;;;;5043858;28;20102;-47
2022/01/24 13:25:55;;;;;;;50.15;37.40;;;5.70;99.90;;;;;;5025362;28;20062;-50
2022/01/24 13:28:21;;;;;;;49.92;36.22;;;5.70;99.90;;;;;;5042495;28;20049;-46
2022/01/24 13:30:49;;;;;;;49.75;35.50;;;5.70;99.90;;;;;;5043218;28;20060;-49
2022/01/24 13:33:19;;;;;;;48.90;35.45;;;5.70;99.90;;;;;;5044149;28;20064;-47
2022/01/24 13:35:51;;;;;;;49.35;36.30;;;5.70;99.90;;;;;;5028927;28;20079;-47
2022/01/24 13:38:31;;;;;;;46.35;34.65;;;5.70;99.90;;;;;;5030317;28;20056;-49
2022/01/24 13:41:08;;;;;;;48.55;35.17;;;5.70;99.90;;;;;;5025634;28;20147;-47
2022/01/24 13:43:53;;;;;;;50.85;36.10;;;5.60;99.90;;;;;;5043615;28;20075;-46
2022/01/24 13:46:46;;;;;;;48.05;35.13;;;5.60;99.90;;;;;;5043599;28;20045;-47
2022/01/24 13:49:19;;;;;;;49.70;36.13;;;5.60;99.90;;;;;;5037950;28;20041;-46
2022/01/24 13:51:52;;;;;;;49.78;35.88;;;5.60;99.90;;;;;;5031544;28;20049;-49
2022/01/24 13:54:22;;;;;;;51.28;36.40;;;5.60;99.90;;;;;;5007789;28;20061;-50
2022/01/24 13:56:53;;;;;;;53.22;38.05;;;5.60;99.90;;;;;;5050542;28;20059;-47
2022/01/24 13:59:32;;;;;;;53.90;36.88;;;5.60;99.90;;;;;;5041870;28;20080;-46
2022/01/24 14:02:09;;;;;;;52.03;36.35;;;5.50;99.90;;;;;;5043195;28;20049;-47
2022/01/24 14:04:46;;;;;;;52.42;36.63;;;5.50;99.90;;;;;;5043104;28;20153;-49
2022/01/24 14:07:13;;;;;;;52.83;37.13;;;5.50;99.90;;;;;;5043690;28;20110;-46
2022/01/24 14:09:49;;;;;;;48.70;34.90;;;5.50;99.90;;;;;;5041011;28;20052;-46
2022/01/24 14:12:23;;;;;;;49.45;35.55;;;5.50;99.90;;;;;;5015000;28;20131;-48
2022/01/24 14:15:22;;;;;;;51.72;37.22;;;5.50;99.90;;;;;;5038868;28;20462;-49
2022/01/24 14:18:23;;;;;;;51.25;34.83;;;5.50;99.90;;;;;;5041143;28;20049;-47
2022/01/24 14:20:51;;;;;;;47.85;34.35;;;5.40;99.90;;;;;;5040082;28;20049;-47
2022/01/24 14:23:25;;;;;;;53.05;36.47;;;5.40;99.90;;;;;;5045634;28;20041;-48
2022/01/24 14:25:52;;;;;;;50.95;35.55;;;5.30;99.90;;;;;;5023165;28;20056;-47
2022/01/24 14:28:22;;;;;;;53.35;37.90;;;5.30;99.90;;;;;;5044197;28;20045;-46
2022/01/24 14:30:49;;;;;;;52.45;36.35;;;5.30;99.90;;;;;;5022666;28;20052;-48
2022/01/24 14:33:22;;;;;;;52.97;37.63;;;5.30;99.90;;;;;;5041314;28;20123;-48
2022/01/24 14:35:47;;;;;;;;;;;5.30;99.90;;;;;;5024271;28;20045;-47
2022/01/24 14:38:29;;;;;;;49.35;35.55;;;5.20;99.90;;;;;;5041664;28;19924;-47
2022/01/24 14:40:58;;;;;;;50.65;35.30;;;5.20;99.90;;;;;;5038944;28;20049;-48
2022/01/24 14:46:15;;;;;;;47.67;31.70;;;5.20;99.90;;;;;;5043150;28;20049;-47
2022/01/24 14:48:59;;;;;;;49.03;31.95;;;5.20;99.90;;;;;;5046900;28;20084;-46
2022/01/24 14:51:29;;;;;;;50.35;33.42;;;5.30;99.90;;;;;;5042208;28;20088;-46
2022/01/24 14:53:57;;;;;;;48.42;32.85;;;5.30;99.90;;;;;;5036876;28;20578;-49
2022/01/24 14:56:24;;;;;;;50.67;33.60;;;5.30;99.90;;;;;;5044217;28;20055;-46
2022/01/24 14:58:50;;;;;;;48.67;34.22;;;5.30;99.90;;;;;;5022799;28;20048;-47
2022/01/24 15:01:16;;;;;;;47.80;32.92;;;5.30;99.90;;;;;;5023564;28;20056;-50